Terminal Aerodrome Forecast
Issued by NWS

Home | Current Version | Previous Version | Graphics & Text | Print | Product List | Glossary On
Versions: 1 2 3 4 5 6 7 8 9 10 11 12 13 14 15 16 17
000
FTUS43 KMPX 181120
TAFAXN
TAF
KAXN 181120Z 1812/1912 15006KT P6SM BKN090
     FM181400 15012KT P6SM VCSH BKN080
     FM181700 16013G21KT P6SM OVC015
     FM190200 15011KT P6SM OVC007=

USA.gov is the U.S. government's official web portal to all federal, state and local government web resources and services.